Time;durP1;ratioP1;P1;durP2;ratioP2;P2;SDS_P1;SDS_P2;PMS_P1;PMS_P2;Temp;Humidity;BMP_temperature;BMP_pressure;BME280_temperature;BME280_humidity;BME280_pressure;Samples;Min_cycle;Max_cycle;Signal;HPM_P1;HPM_P2
2021/10/17 00:00:59;;;;;;;;;;;;;;;12.48;83.31;101054.03;1930284;74;20197;-60
2021/10/17 00:03:26;;;;;;;;;;;;;;;12.50;83.41;101056.63;1930166;74;20169;-60
2021/10/17 00:05:54;;;;;;;;;;;;;;;12.49;83.19;101058.41;1930132;74;20138;-60
2021/10/17 00:08:22;;;;;;;;;;;;;;;12.49;83.07;101057.56;1930296;74;20142;-60
2021/10/17 00:10:50;;;;;;;;;;;;;;;12.49;83.17;101060.20;1930326;74;20197;-60
2021/10/17 00:13:18;;;;;;;;;;;;;;;12.45;83.57;101064.75;1930254;74;20142;-61
2021/10/17 00:15:45;;;;;;;;;;;;;;;12.44;83.25;101070.94;1930343;74;20142;-61
2021/10/17 00:18:13;;;;;;;;;;;;;;;12.41;83.25;101069.73;1930312;74;20176;-60
2021/10/17 00:20:41;;;;;;;;;;;;;;;12.42;84.22;101070.63;1930333;74;20177;-61
2021/10/17 00:23:09;;;;;;;;;;;;;;;12.39;84.70;101065.45;1930333;74;20134;-61
2021/10/17 00:25:37;;;;;;;;;;;;;;;12.37;84.62;101073.44;1930280;74;20432;-63
2021/10/17 00:28:05;;;;;;;;;;;;;;;12.36;84.59;101075.70;1930226;74;20138;-61
2021/10/17 00:30:34;;;;;;;;;;;;;;;12.34;84.79;101070.47;1930794;73;20122;-60
2021/10/17 00:33:02;;;;;;;;;;;;;;;12.33;85.01;101074.02;1924974;74;20138;-60
2021/10/17 00:35:31;;;;;;;;;;;;;;;12.33;85.12;101066.57;1914310;75;20197;-60
2021/10/17 00:37:59;;;;;;;;;;;;;;;12.32;84.81;101072.32;1914567;75;20170;-60
2021/10/17 00:40:27;;;;;;;;;;;;;;;12.30;84.76;101064.92;1914309;75;20139;-60
2021/10/17 00:43:00;;;;;;;;;;;;;;;12.29;84.63;101069.80;1914297;75;20147;-61
2021/10/17 00:45:30;;;;;;;;;;;;;;;12.30;84.36;101068.89;1914129;75;20123;-60
2021/10/17 00:47:59;;;;;;;;;;;;;;;12.31;84.12;101073.70;1914340;75;20420;-61
2021/10/17 00:50:27;;;;;;;;;;;;;;;12.29;83.84;101072.91;1914427;75;20397;-60
2021/10/17 00:52:55;;;;;;;;;;;;;;;12.24;83.68;101063.84;1914247;75;20130;-61
2021/10/17 00:55:24;;;;;;;;;;;;;;;12.17;83.63;101063.69;1914249;75;20143;-60
2021/10/17 00:57:52;;;;;;;;;;;;;;;12.15;83.53;101070.81;1914244;75;20135;-60
2021/10/17 01:00:19;;;;;;;;;;;;;;;12.11;83.41;101067.44;1914255;75;20169;-61
2021/10/17 01:02:47;;;;;;;;;;;;;;;12.09;83.36;101059.19;1914309;75;20142;-61
2021/10/17 01:05:16;;;;;;;;;;;;;;;12.04;83.28;101059.36;1914243;75;20138;-61
2021/10/17 01:07:45;;;;;;;;;;;;;;;12.00;83.16;101069.64;1914271;75;20225;-60
2021/10/17 01:10:15;;;;;;;;;;;;;;;11.98;83.16;101070.17;1914180;74;20122;-60
2021/10/17 01:12:44;;;;;;;;;;;;;;;11.96;83.01;101072.86;1914338;75;20150;-60
2021/10/17 01:15:13;;;;;;;;;;;;;;;11.93;82.84;101073.00;1914316;75;20470;-60
2021/10/17 01:17:42;;;;;;;;;;;;;;;11.89;82.71;101066.07;1914365;73;20146;-61
2021/10/17 01:20:11;;;;;;;;;;;;;;;11.85;82.64;101069.76;1914278;75;20197;-60
2021/10/17 01:22:41;;;;;;;;;;;;;;;11.81;82.68;101072.59;1914404;75;20143;-60
2021/10/17 01:25:10;;;;;;;;;;;;;;;11.78;82.70;101070.91;1914439;75;20397;-61
2021/10/17 01:27:39;;;;;;;;;;;;;;;11.76;82.61;101063.05;1914312;75;20431;-60
2021/10/17 01:30:07;;;;;;;;;;;;;;;11.74;82.48;101074.59;1914225;75;20432;-60
2021/10/17 01:32:35;;;;;;;;;;;;;;;11.69;82.49;101059.40;1914499;75;20444;-60
2021/10/17 01:35:04;;;;;;;;;;;;;;;11.67;82.47;101067.36;1928741;74;20129;-60
2021/10/17 01:37:32;;;;;;;;;;;;;;;11.66;82.42;101060.86;1930278;74;20201;-60
2021/10/17 01:40:01;;;;;;;;;;;;;;;11.65;82.39;101059.12;1930323;74;20142;-60
2021/10/17 01:42:29;;;;;;;;;;;;;;;11.63;82.33;101066.23;1955622;73;20164;-60
2021/10/17 01:44:58;;;;;;;;;;;;;;;11.59;82.33;101065.03;1930372;74;20130;-60
2021/10/17 01:47:27;;;;;;;;;;;;;;;11.57;82.40;101060.27;1930456;74;20134;-60
2021/10/17 01:49:55;;;;;;;;;;;;;;;11.57;82.37;101069.50;1930270;74;20146;-60
2021/10/17 01:52:24;;;;;;;;;;;;;;;11.57;82.28;101068.19;1930302;74;20137;-60
2021/10/17 01:54:52;;;;;;;;;;;;;;;11.59;82.20;101076.89;1930399;74;20494;-60
2021/10/17 01:57:22;;;;;;;;;;;;;;;11.59;82.15;101070.77;1929955;73;20177;-61
2021/10/17 01:59:49;;;;;;;;;;;;;;;11.63;82.09;101074.15;1930199;74;20209;-60
2021/10/17 02:02:19;;;;;;;;;;;;;;;11.64;82.07;101075.85;1931312;73;20185;-60
2021/10/17 02:04:47;;;;;;;;;;;;;;;11.68;82.17;101078.80;1930380;74;20142;-60
2021/10/17 02:07:16;;;;;;;;;;;;;;;11.74;82.23;101077.23;1930368;73;20138;-60
2021/10/17 02:09:44;;;;;;;;;;;;;;;11.81;82.20;101072.59;1930288;74;20164;-60
2021/10/17 02:12:12;;;;;;;;;;;;;;;11.83;82.18;101075.55;1930240;74;20172;-60
2021/10/17 02:14:41;;;;;;;;;;;;;;;11.86;82.14;101067.97;1930339;74;20442;-60
2021/10/17 02:17:09;;;;;;;;;;;;;;;11.85;82.12;101071.08;1930334;74;20142;-60
2021/10/17 02:19:37;;;;;;;;;;;;;;;11.85;82.18;101078.14;1930266;74;20146;-60
2021/10/17 02:22:05;;;;;;;;;;;;;;;11.88;82.01;101071.44;1930276;74;20161;-61
2021/10/17 02:24:33;;;;;;;;;;;;;;;11.89;81.93;101071.34;1930153;74;20126;-61
2021/10/17 02:27:01;;;;;;;;;;;;;;;11.90;81.80;101069.62;1930227;74;20142;-61
2021/10/17 02:29:34;;;;;;;;;;;;;;;11.90;81.98;101066.98;1930207;73;20167;-61
2021/10/17 02:32:03;;;;;;;;;;;;;;;11.88;82.30;101068.80;1932387;73;20145;-60
2021/10/17 02:34:32;;;;;;;;;;;;;;;11.89;82.18;101076.63;1930173;74;20299;-60
2021/10/17 02:37:01;;;;;;;;;;;;;;;11.91;82.04;101073.97;1930186;74;20142;-61
2021/10/17 02:39:30;;;;;;;;;;;;;;;11.92;81.91;101080.51;1930205;74;20133;-61
2021/10/17 02:41:58;;;;;;;;;;;;;;;11.91;82.03;101084.52;1930180;74;20138;-60
2021/10/17 02:44:27;;;;;;;;;;;;;;;11.93;82.01;101085.31;1930459;73;20160;-60
2021/10/17 02:46:57;;;;;;;;;;;;;;;11.97;82.03;101079.88;1930276;74;20130;-61
2021/10/17 02:49:26;;;;;;;;;;;;;;;12.03;81.91;101080.09;1930261;74;20130;-60
2021/10/17 02:51:54;;;;;;;;;;;;;;;12.06;81.82;101082.62;1930172;74;20142;-61
2021/10/17 02:54:24;;;;;;;;;;;;;;;12.08;81.78;101083.41;1930302;74;20223;-60
2021/10/17 02:56:52;;;;;;;;;;;;;;;12.09;81.62;101075.88;1930231;74;20197;-60
2021/10/17 02:59:22;;;;;;;;;;;;;;;12.11;81.52;101076.67;1930316;73;20184;-60
2021/10/17 03:01:50;;;;;;;;;;;;;;;12.12;81.41;101078.88;1930177;74;20172;-61
2021/10/17 03:04:18;;;;;;;;;;;;;;;12.12;81.46;101078.41;1930162;74;20142;-61
2021/10/17 03:06:47;;;;;;;;;;;;;;;12.17;81.42;101071.60;1930905;73;20122;-60
2021/10/17 03:09:15;;;;;;;;;;;;;;;12.20;81.37;101078.09;1930137;74;20172;-60
2021/10/17 03:11:43;;;;;;;;;;;;;;;12.22;81.51;101073.60;1930267;74;20185;-60
2021/10/17 03:14:11;;;;;;;;;;;;;;;12.23;81.50;101076.66;1930215;74;20130;-61
2021/10/17 03:16:45;;;;;;;;;;;;;;;12.26;81.48;101074.34;1930125;73;20408;-62
2021/10/17 03:19:10;;;;;;;;;;;;;;;12.28;81.44;101077.77;1930264;73;20143;-61
2021/10/17 03:21:38;;;;;;;;;;;;;;;12.32;81.49;101074.96;1930285;74;20384;-60
2021/10/17 03:24:07;;;;;;;;;;;;;;;12.38;81.32;101079.12;1930205;74;20146;-60
2021/10/17 03:26:35;;;;;;;;;;;;;;;12.41;81.18;101091.34;1930206;74;20145;-61
2021/10/17 03:29:02;;;;;;;;;;;;;;;12.42;81.01;101083.35;1930391;74;20172;-60
2021/10/17 03:31:33;;;;;;;;;;;;;;;12.39;80.84;101073.38;1930144;74;20251;-61
2021/10/17 03:34:01;;;;;;;;;;;;;;;12.33;80.72;101074.02;1929702;73;20134;-61
2021/10/17 03:36:29;;;;;;;;;;;;;;;12.25;80.65;101080.56;1877111;76;20103;-61
2021/10/17 03:38:57;;;;;;;;;;;;;;;12.18;80.62;101076.45;1909426;75;20147;-60
2021/10/17 03:41:30;;;;;;;;;;;;;;;12.13;80.58;101077.94;1861451;77;20106;-61
2021/10/17 03:43:59;;;;;;;;;;;;;;;12.07;80.58;101077.72;1861455;77;20427;-61
2021/10/17 03:46:28;;;;;;;;;;;;;;;12.04;80.55;101088.86;1861664;77;20175;-60
2021/10/17 03:48:56;;;;;;;;;;;;;;;12.00;80.53;101088.59;1861629;77;20126;-60
2021/10/17 03:51:25;;;;;;;;;;;;;;;11.96;80.54;101087.84;1861483;77;20608;-61
2021/10/17 03:53:55;;;;;;;;;;;;;;;11.91;80.49;101089.80;1861397;77;20143;-60
2021/10/17 03:56:22;;;;;;;;;;;;;;;11.87;80.48;101089.02;1861452;77;20159;-60
2021/10/17 03:58:50;;;;;;;;;;;;;;;11.81;80.61;101091.91;1861483;77;20140;-60
2021/10/17 04:01:18;;;;;;;;;;;;;;;11.81;80.60;101087.95;1861657;77;20129;-61
2021/10/17 04:03:46;;;;;;;;;;;;;;;11.84;80.58;101083.00;1861542;77;20105;-60
2021/10/17 04:06:15;;;;;;;;;;;;;;;11.85;80.64;101084.73;1861528;77;20126;-60
2021/10/17 04:08:44;;;;;;;;;;;;;;;11.84;80.72;101087.84;1861503;77;20187;-60
2021/10/17 04:11:11;;;;;;;;;;;;;;;11.85;80.54;101096.14;1861417;77;20125;-60
2021/10/17 04:13:39;;;;;;;;;;;;;;;11.86;80.51;101105.80;1860944;77;20188;-60
2021/10/17 04:16:07;;;;;;;;;;;;;;;11.85;80.47;101111.97;1861397;77;20152;-60
2021/10/17 04:18:37;;;;;;;;;;;;;;;11.84;80.54;101116.87;1861516;77;20141;-61
2021/10/17 04:21:05;;;;;;;;;;;;;;;11.89;80.55;101111.40;1861342;77;20387;-62
2021/10/17 04:23:33;;;;;;;;;;;;;;;11.92;80.51;101112.17;1861097;77;20157;-61
2021/10/17 04:26:01;;;;;;;;;;;;;;;11.97;80.50;101104.95;1860172;77;20118;-60
2021/10/17 04:28:30;;;;;;;;;;;;;;;12.02;80.49;101110.50;1861654;75;20156;-61
2021/10/17 04:30:58;;;;;;;;;;;;;;;12.08;80.54;101108.92;1861178;76;20218;-65
2021/10/17 04:33:26;;;;;;;;;;;;;;;12.16;80.49;101102.90;1891891;76;20112;-63
2021/10/17 04:35:54;;;;;;;;;;;;;;;12.32;80.38;101099.16;1905913;74;20161;-65
2021/10/17 04:38:21;;;;;;;;;;;;;;;12.51;80.22;101111.18;1891326;76;20187;-60
2021/10/17 04:40:49;;;;;;;;;;;;;;;12.66;80.09;101105.72;1891326;76;20383;-59
2021/10/17 04:43:17;;;;;;;;;;;;;;;12.86;79.84;101103.55;1891408;76;20112;-59
2021/10/17 04:45:45;;;;;;;;;;;;;;;13.02;79.56;101103.30;1891380;76;20108;-60
2021/10/17 04:48:13;;;;;;;;;;;;;;;13.20;79.38;101107.37;1891330;76;20142;-59
2021/10/17 04:50:41;;;;;;;;;;;;;;;13.40;79.12;101110.02;1891295;76;20124;-60
2021/10/17 04:53:09;;;;;;;;;;;;;;;13.56;78.87;101104.05;1891397;76;20147;-59
2021/10/17 04:55:37;;;;;;;;;;;;;;;13.78;78.72;101106.56;1891511;76;20117;-59
2021/10/17 04:58:06;;;;;;;;;;;;;;;14.00;78.59;101101.97;1891340;74;20143;-60
2021/10/17 05:00:35;;;;;;;;;;;;;;;14.23;78.51;101097.34;1891376;76;20159;-59
2021/10/17 05:03:04;;;;;;;;;;;;;;;14.50;78.24;101104.41;1891376;75;20195;-60
2021/10/17 05:05:33;;;;;;;;;;;;;;;14.76;78.04;101105.78;1891416;76;20124;-60
2021/10/17 05:08:01;;;;;;;;;;;;;;;15.02;77.74;101109.74;1891414;76;20104;-59
2021/10/17 05:10:31;;;;;;;;;;;;;;;15.28;77.38;101114.16;1891781;74;20149;-60
2021/10/17 05:12:59;;;;;;;;;;;;;;;15.52;77.15;101105.83;1891390;76;20142;-59
2021/10/17 05:15:26;;;;;;;;;;;;;;;15.74;76.91;101107.73;1891310;76;20121;-59
2021/10/17 05:17:54;;;;;;;;;;;;;;;15.94;76.61;101103.98;1891446;76;20112;-59
2021/10/17 05:20:23;;;;;;;;;;;;;;;16.10;76.77;101097.80;1891481;75;20152;-59
2021/10/17 05:22:50;;;;;;;;;;;;;;;16.40;77.04;101103.18;1891380;76;20116;-59
2021/10/17 05:25:19;;;;;;;;;;;;;;;16.67;77.09;101101.17;1891351;76;20111;-59
2021/10/17 05:27:48;;;;;;;;;;;;;;;16.81;77.27;101109.20;1890664;76;20402;-59
2021/10/17 05:30:16;;;;;;;;;;;;;;;16.93;77.25;101116.94;1891190;76;20116;-59
2021/10/17 05:32:45;;;;;;;;;;;;;;;17.06;76.58;101107.75;1889845;76;20156;-59
2021/10/17 05:35:12;;;;;;;;;;;;;;;17.24;76.21;101109.29;1889862;75;20392;-61
2021/10/17 05:37:40;;;;;;;;;;;;;;;17.52;76.08;101112.91;1905360;75;20147;-60
2021/10/17 05:40:09;;;;;;;;;;;;;;;17.86;75.87;101118.83;1890348;76;20116;-59
2021/10/17 05:42:38;;;;;;;;;;;;;;;18.14;74.44;101120.08;1889714;76;20109;-60
2021/10/17 05:45:08;;;;;;;;;;;;;;;18.29;74.39;101122.70;1918949;74;20423;-59
2021/10/17 05:47:36;;;;;;;;;;;;;;;18.36;73.34;101121.35;1919736;75;20193;-61
2021/10/17 05:50:05;;;;;;;;;;;;;;;18.41;73.85;101120.58;1903485;75;20119;-61
2021/10/17 05:52:33;;;;;;;;;;;;;;;18.40;73.28;101116.19;1902158;75;20197;-61
2021/10/17 05:55:01;;;;;;;;;;;;;;;18.41;73.48;101120.58;1901881;75;20111;-60
2021/10/17 05:57:30;;;;;;;;;;;;;;;18.44;73.55;101119.51;1901860;75;20119;-60
2021/10/17 05:59:57;;;;;;;;;;;;;;;18.45;73.61;101119.90;1901944;75;20103;-60
2021/10/17 06:02:25;;;;;;;;;;;;;;;18.64;73.44;101120.86;1901949;75;20107;-61
2021/10/17 06:04:54;;;;;;;;;;;;;;;18.74;72.39;101121.08;1901961;75;20204;-60
2021/10/17 06:07:23;;;;;;;;;;;;;;;18.83;72.46;101124.03;1873322;75;20124;-60
2021/10/17 06:09:51;;;;;;;;;;;;;;;18.79;72.25;101122.48;1903387;75;20116;-61
2021/10/17 06:12:21;;;;;;;;;;;;;;;18.85;72.21;101119.45;1903695;74;20107;-60
2021/10/17 06:14:49;;;;;;;;;;;;;;;18.86;71.67;101119.80;1903459;75;20103;-60
2021/10/17 06:17:17;;;;;;;;;;;;;;;18.69;71.96;101118.73;1903434;75;20127;-60
2021/10/17 06:19:45;;;;;;;;;;;;;;;18.62;71.90;101122.77;1903543;75;20111;-60
2021/10/17 06:22:13;;;;;;;;;;;;;;;18.56;71.74;101118.70;1903363;75;20171;-60
2021/10/17 06:24:43;;;;;;;;;;;;;;;18.65;71.30;101128.76;1903559;74;20140;-60
2021/10/17 06:27:11;;;;;;;;;;;;;;;18.65;71.35;101131.91;1903457;75;20559;-60
2021/10/17 06:29:39;;;;;;;;;;;;;;;18.88;71.38;101124.55;1903471;75;20123;-60
2021/10/17 06:32:07;;;;;;;;;;;;;;;19.12;70.84;101129.67;1903458;75;20103;-60
2021/10/17 06:34:37;;;;;;;;;;;;;;;19.17;70.80;101127.55;1903729;74;20119;-62
2021/10/17 06:37:05;;;;;;;;;;;;;;;18.98;70.28;101125.27;1896218;75;20225;-60
2021/10/17 06:39:32;;;;;;;;;;;;;;;18.92;70.47;101127.88;1863599;77;20116;-60
2021/10/17 06:42:00;;;;;;;;;;;;;;;19.04;70.40;101135.54;1890389;76;20379;-60
2021/10/17 06:44:33;;;;;;;;;;;;;;;19.03;69.78;101136.02;1866505;74;20460;-60
2021/10/17 06:47:01;;;;;;;;;;;;;;;19.04;69.98;101130.20;1897232;76;20141;-61
2021/10/17 06:49:29;;;;;;;;;;;;;;;19.02;69.33;101128.97;1890310;76;20180;-61
2021/10/17 06:51:58;;;;;;;;;;;;;;;19.09;68.25;101126.75;1890442;76;20113;-60
2021/10/17 06:54:26;;;;;;;;;;;;;;;19.32;67.52;101124.28;1890373;76;20120;-60
2021/10/17 06:56:53;;;;;;;;;;;;;;;19.71;67.27;101122.43;1890338;76;20143;-60
2021/10/17 06:59:21;;;;;;;;;;;;;;;20.18;66.84;101118.17;1890349;76;20117;-61
2021/10/17 07:01:50;;;;;;;;;;;;;;;20.60;66.49;101118.59;1890287;76;20113;-61
2021/10/17 07:04:18;;;;;;;;;;;;;;;20.90;65.87;101117.29;1890422;76;20143;-59
2021/10/17 07:06:46;;;;;;;;;;;;;;;21.00;66.15;101120.45;1890342;76;20139;-60
2021/10/17 07:09:16;;;;;;;;;;;;;;;21.00;66.49;101115.09;1890339;76;20456;-60
2021/10/17 07:11:52;;;;;;;;;;;;;;;20.87;65.89;101116.17;1865488;74;20117;-60
2021/10/17 07:14:22;;;;;;;;;;;;;;;20.54;66.04;101113.72;1897310;73;20418;-60
2021/10/17 07:17:08;;;;;;;;;;;;;;;20.22;65.85;101114.30;1890393;76;20120;-62
2021/10/17 07:19:36;;;;;;;;;;;;;;;19.91;65.99;101113.86;1890484;76;20151;-61
2021/10/17 07:22:04;;;;;;;;;;;;;;;19.78;66.24;101110.38;1890441;76;20144;-62
2021/10/17 07:24:34;;;;;;;;;;;;;;;19.78;66.51;101105.03;1865169;74;20121;-63
2021/10/17 07:27:02;;;;;;;;;;;;;;;19.87;65.79;101103.03;1897222;74;20110;-62
2021/10/17 07:29:31;;;;;;;;;;;;;;;20.15;65.73;101110.37;1890625;76;20159;-62
2021/10/17 07:31:59;;;;;;;;;;;;;;;20.35;65.51;101104.39;1890464;76;20128;-62
2021/10/17 07:34:28;;;;;;;;;;;;;;;20.64;65.02;101106.75;1890507;76;20116;-62
2021/10/17 07:36:56;;;;;;;;;;;;;;;20.96;64.53;101102.08;1890310;76;20125;-63
2021/10/17 07:39:26;;;;;;;;;;;;;;;21.40;63.86;101102.63;1873601;75;20189;-63
2021/10/17 07:41:55;;;;;;;;;;;;;;;21.84;62.94;101101.42;1903661;75;20197;-63
2021/10/17 07:44:22;;;;;;;;;;;;;;;22.04;62.54;101102.95;1903534;75;20149;-64
2021/10/17 07:47:07;;;;;;;;;;;;;;;22.24;62.42;101100.81;1885661;75;20103;-64
2021/10/17 07:49:36;;;;;;;;;;;;;;;22.54;61.91;101095.27;1904225;74;20122;-65
2021/10/17 07:52:04;;;;;;;;;;;;;;;22.84;61.35;101093.65;1903507;75;20150;-64
2021/10/17 07:54:35;;;;;;;;;;;;;;;22.96;61.52;101097.95;1903567;75;20146;-64
2021/10/17 07:57:02;;;;;;;;;;;;;;;23.27;61.26;101099.36;1903491;75;20115;-63
2021/10/17 07:59:32;;;;;;;;;;;;;;;23.33;59.00;101094.78;1903710;74;20126;-64
2021/10/17 08:02:00;;;;;;;;;;;;;;;23.50;58.75;101094.17;1903503;75;20142;-64
2021/10/17 08:04:29;;;;;;;;;;;;;;;23.81;56.85;101084.77;1901795;74;20118;-64
2021/10/17 08:07:06;;;;;;;;;;;;;;;24.04;58.44;101080.48;1903165;74;20150;-64
2021/10/17 08:09:33;;;;;;;;;;;;;;;24.36;58.37;101084.75;1903566;75;20381;-63
2021/10/17 08:12:02;;;;;;;;;;;;;;;24.80;57.01;101084.67;1903582;75;20149;-63
2021/10/17 08:14:31;;;;;;;;;;;;;;;25.22;56.11;101082.94;1903589;74;20118;-64
2021/10/17 08:16:59;;;;;;;;;;;;;;;25.73;55.15;101084.81;1903466;75;20103;-64
2021/10/17 08:19:29;;;;;;;;;;;;;;;26.17;53.90;101071.97;1907672;74;20119;-63
2021/10/17 08:21:57;;;;;;;;;;;;;;;26.51;53.14;101072.13;1903575;75;20116;-62
2021/10/17 08:24:24;;;;;;;;;;;;;;;26.92;53.00;101067.05;1903530;75;20189;-62
2021/10/17 08:26:53;;;;;;;;;;;;;;;27.29;53.04;101057.83;1903570;75;20114;-63
2021/10/17 08:29:22;;;;;;;;;;;;;;;27.10;50.41;101055.35;1904953;74;20119;-63
2021/10/17 08:31:51;;;;;;;;;;;;;;;26.82;49.90;101054.17;1903615;75;20141;-63
2021/10/17 08:34:20;;;;;;;;;;;;;;;26.59;49.06;101057.33;1903640;75;20107;-63
2021/10/17 08:36:47;;;;;;;;;;;;;;;26.46;49.67;101058.75;1903472;75;20115;-63
2021/10/17 08:39:17;;;;;;;;;;;;;;;26.31;49.76;101057.11;1899169;74;20147;-63
2021/10/17 08:41:46;;;;;;;;;;;;;;;26.54;49.80;101053.40;1897801;76;20409;-62
2021/10/17 08:44:17;;;;;;;;;;;;;;;27.10;49.69;101049.44;1897798;76;20131;-62
2021/10/17 08:47:05;;;;;;;;;;;;;;;27.01;49.43;101049.55;1899247;74;20369;-63
2021/10/17 08:49:35;;;;;;;;;;;;;;;26.72;50.08;101050.20;1898043;74;20155;-62
2021/10/17 08:52:04;;;;;;;;;;;;;;;26.73;50.49;101048.36;1897899;76;20162;-62
2021/10/17 08:54:32;;;;;;;;;;;;;;;27.17;50.03;101048.30;1897831;76;20480;-63
2021/10/17 08:57:01;;;;;;;;;;;;;;;27.78;48.76;101042.30;1898550;74;20146;-63
2021/10/17 08:59:30;;;;;;;;;;;;;;;28.30;47.99;101042.58;1898000;76;20119;-63
2021/10/17 09:01:58;;;;;;;;;;;;;;;28.76;46.79;101034.78;1897888;76;20145;-63
2021/10/17 09:04:28;;;;;;;;;;;;;;;28.91;47.05;101032.73;1899451;74;20143;-63
2021/10/17 09:06:57;;;;;;;;;;;;;;;28.86;47.18;101029.17;1897913;74;20140;-64
2021/10/17 09:09:25;;;;;;;;;;;;;;;28.90;47.42;101029.15;1897917;76;20150;-64
2021/10/17 09:11:58;;;;;;;;;;;;;;;28.87;47.01;101033.06;1898356;74;20139;-64
2021/10/17 09:14:28;;;;;;;;;;;;;;;28.53;47.72;101036.50;1897859;76;20392;-64
2021/10/17 09:16:57;;;;;;;;;;;;;;;28.27;47.42;101028.02;1897893;76;20159;-64
2021/10/17 09:19:26;;;;;;;;;;;;;;;27.90;48.04;101033.39;1897973;76;20191;-64
2021/10/17 09:21:59;;;;;;;;;;;;;;;27.49;48.82;101030.55;1897854;76;20374;-63
2021/10/17 09:24:28;;;;;;;;;;;;;;;27.06;49.47;101022.39;1898446;75;20145;-63
2021/10/17 09:27:14;;;;;;;;;;;;;;;26.55;50.04;101028.95;1897862;76;20167;-64
2021/10/17 09:29:43;;;;;;;;;;;;;;;25.96;50.36;101029.95;1897813;76;20146;-63
2021/10/17 09:32:12;;;;;;;;;;;;;;;25.28;50.45;101024.94;1897991;76;20111;-62
2021/10/17 09:34:40;;;;;;;;;;;;;;;24.76;50.82;101018.64;1897820;76;20145;-61
2021/10/17 09:37:09;;;;;;;;;;;;;;;24.57;51.41;101018.20;1897831;76;20115;-61
2021/10/17 09:40:06;;;;;;;;;;;;;;;24.45;51.65;101011.23;1903101;75;20200;-62
2021/10/17 09:42:42;;;;;;;;;;;;;;;24.28;51.95;101015.50;1906742;74;20153;-62
2021/10/17 09:45:21;;;;;;;;;;;;;;;24.29;52.07;101011.84;1907131;74;20130;-62
2021/10/17 09:47:49;;;;;;;;;;;;;;;24.16;52.12;101016.63;1903498;75;20107;-62
2021/10/17 09:50:18;;;;;;;;;;;;;;;24.17;52.51;101012.96;1903499;75;20154;-62
2021/10/17 09:52:56;;;;;;;;;;;;;;;24.04;52.45;101010.05;1903404;75;20155;-62
2021/10/17 09:55:25;;;;;;;;;;;;;;;24.08;52.50;101006.58;1903494;75;20112;-62
2021/10/17 09:57:52;;;;;;;;;;;;;;;24.33;52.66;101015.05;1903425;75;20145;-62
2021/10/17 10:00:21;;;;;;;;;;;;;;;24.60;52.63;101013.84;1903517;75;20142;-62
2021/10/17 10:02:49;;;;;;;;;;;;;;;24.65;52.48;101009.39;1903433;75;20115;-62
2021/10/17 10:05:19;;;;;;;;;;;;;;;24.43;52.36;101008.67;1903413;75;20119;-62
2021/10/17 10:07:47;;;;;;;;;;;;;;;24.70;52.19;101017.02;1903474;75;20107;-62
2021/10/17 10:10:15;;;;;;;;;;;;;;;24.93;51.84;101012.15;1903505;75;20119;-62
2021/10/17 10:12:43;;;;;;;;;;;;;;;24.86;52.08;101007.84;1903487;75;20107;-62
2021/10/17 10:15:11;;;;;;;;;;;;;;;24.72;52.44;101011.86;1903486;75;20149;-62
2021/10/17 10:17:40;;;;;;;;;;;;;;;24.48;52.96;101011.80;1903434;75;20145;-63
2021/10/17 10:20:10;;;;;;;;;;;;;;;24.31;53.30;101004.47;1903539;75;20204;-62
2021/10/17 10:22:40;;;;;;;;;;;;;;;24.16;53.50;101011.25;1903448;74;20122;-63
2021/10/17 10:25:09;;;;;;;;;;;;;;;23.99;53.54;101011.46;1903570;75;20119;-62
2021/10/17 10:27:38;;;;;;;;;;;;;;;23.91;53.49;101009.98;1903458;75;20141;-63
2021/10/17 10:30:19;;;;;;;;;;;;;;;23.73;53.61;101003.89;1903569;75;20162;-63
2021/10/17 10:33:09;;;;;;;;;;;;;;;23.88;53.71;101005.24;1903461;75;20135;-62
2021/10/17 10:35:37;;;;;;;;;;;;;;;23.92;53.87;101017.05;1903475;75;20174;-62
2021/10/17 10:38:05;;;;;;;;;;;;;;;23.81;54.06;101016.20;1903443;75;20661;-62
2021/10/17 10:40:33;;;;;;;;;;;;;;;23.74;54.13;101009.64;1897881;75;20119;-63
2021/10/17 10:43:02;;;;;;;;;;;;;;;23.60;53.36;101012.72;1897793;76;20123;-62
2021/10/17 10:45:35;;;;;;;;;;;;;;;23.59;54.13;101012.35;1898516;74;20146;-62
2021/10/17 10:48:10;;;;;;;;;;;;;;;23.84;54.14;101004.30;1897831;76;20409;-62
2021/10/17 10:50:39;;;;;;;;;;;;;;;24.12;53.71;101009.34;1897808;76;20111;-61
2021/10/17 10:53:09;;;;;;;;;;;;;;;24.06;53.90;101004.53;1897780;74;20107;-63
2021/10/17 10:55:41;;;;;;;;;;;;;;;23.88;54.31;101008.41;1897285;76;20146;-60
2021/10/17 10:58:23;;;;;;;;;;;;;;;23.68;54.41;101002.11;1899292;76;20111;-61
2021/10/17 11:00:51;;;;;;;;;;;;;;;23.70;54.38;101000.16;1899180;76;20377;-61
2021/10/17 11:03:20;;;;;;;;;;;;;;;23.74;54.06;101005.61;1897785;76;20146;-61
2021/10/17 11:06:07;;;;;;;;;;;;;;;23.75;54.09;101000.57;1897677;76;20394;-60
2021/10/17 11:08:37;;;;;;;;;;;;;;;23.83;54.08;100999.91;1897785;76;20115;-60
2021/10/17 11:11:05;;;;;;;;;;;;;;;23.78;54.23;101000.81;1897773;76;20412;-60
2021/10/17 11:13:37;;;;;;;;;;;;;;;23.66;53.75;100998.72;1897826;76;20103;-60
2021/10/17 11:16:06;;;;;;;;;;;;;;;23.92;53.66;101001.75;1897705;76;20174;-62
2021/10/17 11:18:38;;;;;;;;;;;;;;;24.12;53.48;101000.42;1897810;76;20111;-62
2021/10/17 11:21:08;;;;;;;;;;;;;;;24.33;53.34;100992.19;1897699;76;20170;-63
2021/10/17 11:23:37;;;;;;;;;;;;;;;24.51;53.02;100989.11;1897771;76;20543;-63
2021/10/17 11:26:06;;;;;;;;;;;;;;;24.60;52.45;100987.43;1897812;76;20119;-62
2021/10/17 11:28:35;;;;;;;;;;;;;;;24.67;51.78;100983.17;1897785;76;20115;-64
2021/10/17 11:31:07;;;;;;;;;;;;;;;24.64;51.56;100978.06;1897837;76;20366;-63
2021/10/17 11:33:36;;;;;;;;;;;;;;;24.69;51.88;100983.03;1897793;76;20147;-63
2021/10/17 11:36:04;;;;;;;;;;;;;;;24.64;51.23;100982.97;1897797;76;20398;-64
2021/10/17 11:38:32;;;;;;;;;;;;;;;24.73;51.66;100979.04;1897785;76;20103;-64
2021/10/17 11:41:02;;;;;;;;;;;;;;;24.66;51.96;100985.02;1903129;75;20152;-64
2021/10/17 11:43:34;;;;;;;;;;;;;;;24.47;52.25;100987.71;1903393;75;20115;-62
2021/10/17 11:46:03;;;;;;;;;;;;;;;24.32;52.61;100988.66;1903435;75;20404;-63
2021/10/17 11:48:33;;;;;;;;;;;;;;;24.23;52.73;100982.78;1903429;75;20119;-63
2021/10/17 11:51:02;;;;;;;;;;;;;;;24.11;52.56;100981.23;1903442;75;20145;-63
2021/10/17 11:53:30;;;;;;;;;;;;;;;24.03;52.75;100983.28;1903364;75;20107;-64
2021/10/17 11:55:58;;;;;;;;;;;;;;;23.92;52.79;100986.95;1903365;75;20145;-63
2021/10/17 11:58:27;;;;;;;;;;;;;;;23.84;53.20;100990.36;1903446;75;20162;-63
2021/10/17 12:00:56;;;;;;;;;;;;;;;23.87;53.36;100995.97;1903396;75;20119;-63
2021/10/17 12:03:26;;;;;;;;;;;;;;;23.83;53.33;100988.67;1903447;75;20305;-64
2021/10/17 12:05:54;;;;;;;;;;;;;;;23.75;53.42;100988.47;1903557;75;20103;-63
2021/10/17 12:08:23;;;;;;;;;;;;;;;23.55;53.49;100993.47;1903492;75;20202;-63
2021/10/17 12:10:56;;;;;;;;;;;;;;;23.40;53.89;100993.84;1903520;75;20397;-63
2021/10/17 12:13:24;;;;;;;;;;;;;;;23.31;54.14;101001.38;1903773;74;20104;-63
2021/10/17 12:16:09;;;;;;;;;;;;;;;23.15;54.46;100998.35;1903524;75;20115;-63
2021/10/17 12:18:38;;;;;;;;;;;;;;;23.04;54.73;100996.14;1903435;75;20452;-63
2021/10/17 12:21:06;;;;;;;;;;;;;;;22.99;54.44;100992.97;1903911;74;20107;-63
2021/10/17 12:23:34;;;;;;;;;;;;;;;22.86;55.10;100991.84;1903575;75;20115;-63
2021/10/17 12:26:11;;;;;;;;;;;;;;;22.79;55.27;100992.02;1896094;74;20151;-64
2021/10/17 12:28:39;;;;;;;;;;;;;;;22.65;55.19;100995.03;1903491;74;20137;-64
2021/10/17 12:31:07;;;;;;;;;;;;;;;22.63;55.39;100993.86;1903424;75;20170;-64
2021/10/17 12:33:41;;;;;;;;;;;;;;;22.70;55.42;100991.00;1903504;75;20143;-64
2021/10/17 12:36:09;;;;;;;;;;;;;;;22.77;55.41;100994.48;1903652;74;20123;-64
2021/10/17 12:38:37;;;;;;;;;;;;;;;22.81;55.40;100993.23;1905473;74;20166;-63
2021/10/17 12:41:05;;;;;;;;;;;;;;;22.75;54.98;100994.12;1899211;75;20168;-63
2021/10/17 12:43:35;;;;;;;;;;;;;;;22.68;55.27;100995.63;1897770;76;20123;-64
2021/10/17 12:46:11;;;;;;;;;;;;;;;22.65;55.45;100993.23;1897829;76;20189;-63